createdAt,value
2023-04-16T00:00:26.590Z,10.33
2023-04-16T00:02:53.883Z,10.14
2023-04-16T00:05:21.063Z,10.32
2023-04-16T00:07:48.089Z,10.31
2023-04-16T00:10:15.111Z,10.26
2023-04-16T00:12:42.251Z,10.13
2023-04-16T00:15:09.825Z,10.21
2023-04-16T00:17:36.850Z,10.27
2023-04-16T00:20:04.280Z,10.25
2023-04-16T00:22:31.225Z,10.26
2023-04-16T00:24:58.173Z,10.23
2023-04-16T00:27:25.173Z,10.29
2023-04-16T00:29:52.268Z,10.17
2023-04-16T00:32:19.300Z,10.25
2023-04-16T00:34:46.255Z,10.27
2023-04-16T00:37:13.257Z,10.31
2023-04-16T00:39:40.351Z,10.34
2023-04-16T00:42:07.421Z,10.38
2023-04-16T00:44:37.524Z,10.26
2023-04-16T00:47:04.973Z,10.28
2023-04-16T00:49:32.061Z,10.23
2023-04-16T00:51:59.298Z,10.30
2023-04-16T00:54:26.448Z,10.26
2023-04-16T00:56:53.426Z,10.29
2023-04-16T00:59:21.370Z,10.24
2023-04-16T01:01:48.458Z,10.26
2023-04-16T01:04:15.890Z,10.20
2023-04-16T01:06:43.060Z,10.12
2023-04-16T01:09:13.957Z,10.21
2023-04-16T01:11:41.116Z,10.24
2023-04-16T01:14:08.246Z,10.11
2023-04-16T01:16:35.220Z,10.19
2023-04-16T01:19:02.861Z,10.19
2023-04-16T01:21:29.842Z,10.23
2023-04-16T01:23:56.808Z,10.21
2023-04-16T01:26:24.211Z,10.10
2023-04-16T01:28:51.204Z,10.15
2023-04-16T01:31:18.314Z,10.10
2023-04-16T01:33:45.442Z,10.16
2023-04-16T01:36:12.435Z,10.10
2023-04-16T01:38:39.396Z,9.96
2023-04-16T01:41:06.334Z,10.09
2023-04-16T01:43:33.488Z,10.09
2023-04-16T01:46:20.479Z,10.07
2023-04-16T01:48:47.727Z,10.09
2023-04-16T01:51:14.840Z,10.08
2023-04-16T01:53:41.786Z,10.11
2023-04-16T01:56:08.880Z,10.11
2023-04-16T01:58:36.088Z,10.08
2023-04-16T02:01:04.485Z,10.04
2023-04-16T02:03:32.152Z,10.05
2023-04-16T02:05:59.244Z,9.98
2023-04-16T02:08:26.308Z,9.91
2023-04-16T02:10:53.656Z,10.06
2023-04-16T02:13:20.648Z,9.96
2023-04-16T02:15:49.107Z,9.76
2023-04-16T02:18:16.478Z,10.03
2023-04-16T02:20:46.321Z,9.93
2023-04-16T02:23:16.989Z,10.03
2023-04-16T02:25:47.312Z,10.03
2023-04-16T02:28:16.878Z,9.82
2023-04-16T02:30:44.438Z,9.98
2023-04-16T02:33:12.647Z,9.86
2023-04-16T02:35:40.832Z,9.58
2023-04-16T02:38:08.604Z,10.05
2023-04-16T02:40:36.288Z,9.92
2023-04-16T02:43:03.398Z,9.97
2023-04-16T02:45:31.671Z,9.90
2023-04-16T02:47:59.728Z,9.86
2023-04-16T02:50:26.803Z,9.97
2023-04-16T02:52:53.829Z,9.88
2023-04-16T02:55:21.083Z,9.63
2023-04-16T02:57:48.054Z,9.88
2023-04-16T03:00:15.411Z,9.83
2023-04-16T03:02:42.651Z,9.74
2023-04-16T03:05:10.326Z,9.93
2023-04-16T03:07:39.199Z,9.82
2023-04-16T03:10:07.692Z,9.93
2023-04-16T03:12:35.059Z,9.90
2023-04-16T03:15:02.455Z,9.91
2023-04-16T03:17:29.877Z,9.93
2023-04-16T03:19:57.016Z,9.84
2023-04-16T03:22:24.021Z,9.96
2023-04-16T03:24:51.078Z,9.91
2023-04-16T03:27:18.082Z,9.81
2023-04-16T03:29:45.313Z,9.97
2023-04-16T03:32:12.776Z,9.88
2023-04-16T03:34:39.742Z,9.72
2023-04-16T03:37:06.949Z,9.83
2023-04-16T03:39:34.693Z,9.95
2023-04-16T03:42:02.339Z,9.85
2023-04-16T03:44:30.189Z,9.84
2023-04-16T03:46:57.285Z,9.82
2023-04-16T03:49:24.417Z,9.90
2023-04-16T03:51:51.491Z,9.73
2023-04-16T03:54:20.175Z,9.78
2023-04-16T03:56:49.165Z,9.75
2023-04-16T03:59:16.120Z,9.69
2023-04-16T04:01:43.092Z,9.63
2023-04-16T04:04:10.603Z,9.74
2023-04-16T04:06:37.696Z,9.56
2023-04-16T04:09:05.882Z,9.88
2023-04-16T04:11:33.053Z,9.84
2023-04-16T04:14:00.020Z,9.84
2023-04-16T04:16:27.005Z,9.69
2023-04-16T04:18:55.353Z,9.77
2023-04-16T04:21:22.309Z,9.67
2023-04-16T04:23:49.417Z,9.67
2023-04-16T04:26:16.448Z,9.66
2023-04-16T04:28:43.438Z,9.72
2023-04-16T04:31:10.675Z,9.76
2023-04-16T04:33:37.630Z,9.68
2023-04-16T04:36:04.824Z,9.86
2023-04-16T04:38:31.833Z,9.78
2023-04-16T04:40:59.543Z,9.71
2023-04-16T04:43:26.653Z,9.63
2023-04-16T04:45:53.606Z,9.79
2023-04-16T04:48:26.217Z,9.83
2023-04-16T04:50:53.948Z,9.79
2023-04-16T04:53:21.071Z,9.71
2023-04-16T04:55:52.148Z,9.55
2023-04-16T04:58:21.035Z,9.47
2023-04-16T05:00:48.020Z,9.52
2023-04-16T05:03:21.551Z,9.76
2023-04-16T05:05:48.705Z,9.72
2023-04-16T05:08:15.795Z,9.55
2023-04-16T05:10:42.814Z,9.47
2023-04-16T05:13:09.738Z,9.70
2023-04-16T05:15:36.777Z,9.59
2023-04-16T05:18:03.859Z,9.62
2023-04-16T05:20:31.952Z,9.72
2023-04-16T05:22:59.027Z,9.74
2023-04-16T05:25:26.204Z,9.82
2023-04-16T05:27:53.286Z,9.59
2023-04-16T05:30:20.611Z,9.41
2023-04-16T05:32:47.635Z,9.70
2023-04-16T05:35:17.203Z,9.74
2023-04-16T05:37:44.520Z,9.63
2023-04-16T05:40:14.147Z,9.69
2023-04-16T05:42:41.097Z,9.75
2023-04-16T05:45:08.877Z,9.64
2023-04-16T05:47:35.871Z,9.78
2023-04-16T05:50:02.903Z,9.71
2023-04-16T05:52:29.832Z,9.78
2023-04-16T05:54:56.793Z,9.62
2023-04-16T05:57:23.736Z,9.70
2023-04-16T05:59:50.729Z,9.67
2023-04-16T06:02:17.977Z,9.84
2023-04-16T06:04:45.016Z,9.76
2023-04-16T06:07:12.096Z,9.80
2023-04-16T06:09:39.128Z,9.67
2023-04-16T06:12:06.238Z,9.72
2023-04-16T06:14:33.282Z,9.76
2023-04-16T06:17:00.226Z,9.83
2023-04-16T06:19:27.209Z,9.86
2023-04-16T06:21:54.380Z,9.84
2023-04-16T06:24:21.429Z,9.89
2023-04-16T06:26:48.385Z,9.87
2023-04-16T06:29:15.544Z,9.81
2023-04-16T06:31:42.625Z,9.90
2023-04-16T06:34:10.307Z,9.81
2023-04-16T06:36:37.780Z,9.79
2023-04-16T06:39:05.015Z,9.88
2023-04-16T06:41:32.096Z,9.84
2023-04-16T06:43:59.086Z,9.94
2023-04-16T06:46:26.048Z,9.81
2023-04-16T06:48:52.992Z,9.73
2023-04-16T06:51:20.767Z,9.88
2023-04-16T06:53:48.678Z,9.75
2023-04-16T06:56:15.675Z,9.79
2023-04-16T06:58:42.819Z,9.73
2023-04-16T07:01:10.233Z,10.04
2023-04-16T07:03:37.568Z,10.04
2023-04-16T07:06:04.885Z,9.94
2023-04-16T07:08:32.017Z,9.98
2023-04-16T07:10:59.421Z,9.88
2023-04-16T07:13:28.937Z,10.12
2023-04-16T07:15:55.977Z,9.99
2023-04-16T07:18:22.958Z,9.98
2023-04-16T07:20:49.955Z,10.00
2023-04-16T07:23:17.007Z,9.89
2023-04-16T07:25:45.046Z,9.99
2023-04-16T07:28:12.001Z,10.02
2023-04-16T07:30:39.175Z,9.95
2023-04-16T07:33:06.308Z,10.07
2023-04-16T07:35:33.339Z,9.98
2023-04-16T07:38:00.400Z,10.02
2023-04-16T07:40:27.837Z,9.97
2023-04-16T07:42:56.078Z,10.01
2023-04-16T07:45:24.103Z,10.08
2023-04-16T07:47:51.087Z,10.04
2023-04-16T07:50:19.518Z,9.98
2023-04-16T07:52:47.512Z,10.00
2023-04-16T07:55:14.878Z,10.05
2023-04-16T07:57:43.882Z,10.09
2023-04-16T08:00:11.661Z,9.79
2023-04-16T08:02:38.863Z,10.17
2023-04-16T08:05:06.473Z,10.16
2023-04-16T08:07:34.822Z,10.19
2023-04-16T08:10:02.504Z,10.17
2023-04-16T08:12:30.097Z,10.20
2023-04-16T08:14:57.080Z,10.06
2023-04-16T08:17:24.126Z,10.16
2023-04-16T08:19:51.266Z,10.31
2023-04-16T08:22:18.554Z,10.22
2023-04-16T08:24:45.679Z,10.25
2023-04-16T08:27:19.046Z,10.30
2023-04-16T08:29:47.029Z,10.21
2023-04-16T08:32:14.094Z,10.14
2023-04-16T08:34:42.365Z,10.22
2023-04-16T08:37:09.852Z,10.26
2023-04-16T08:39:37.707Z,10.23
2023-04-16T08:42:07.091Z,10.14
2023-04-16T08:44:43.695Z,10.23
2023-04-16T08:47:13.594Z,10.16
2023-04-16T08:49:46.179Z,10.32
2023-04-16T08:52:20.294Z,10.31
2023-04-16T08:55:06.837Z,10.32
2023-04-16T08:58:00.141Z,10.36
2023-04-16T09:00:28.495Z,10.43
2023-04-16T09:02:55.672Z,10.36
2023-04-16T09:05:25.738Z,10.36
2023-04-16T09:07:54.620Z,10.50
2023-04-16T09:10:21.913Z,10.32
2023-04-16T09:12:48.876Z,10.40
2023-04-16T09:15:15.859Z,10.29
2023-04-16T09:17:43.083Z,10.50
2023-04-16T09:20:11.249Z,10.47
2023-04-16T09:22:42.443Z,10.51
2023-04-16T09:25:11.293Z,10.56
2023-04-16T09:27:38.812Z,10.48
2023-04-16T09:30:26.149Z,10.44
2023-04-16T09:33:23.060Z,10.47
2023-04-16T09:35:53.024Z,10.50
2023-04-16T09:38:21.150Z,10.51
2023-04-16T09:40:48.224Z,10.43
2023-04-16T09:43:17.845Z,10.67
2023-04-16T09:45:53.165Z,10.72
2023-04-16T09:48:34.121Z,10.64
2023-04-16T09:51:01.553Z,10.71
2023-04-16T09:53:32.324Z,10.67
2023-04-16T09:56:06.293Z,10.71
2023-04-16T09:58:36.449Z,10.78
2023-04-16T10:01:11.754Z,10.68
2023-04-16T10:03:40.994Z,10.73
2023-04-16T10:06:19.768Z,10.69
2023-04-16T10:08:53.903Z,10.73
2023-04-16T10:11:21.424Z,10.76
2023-04-16T10:13:49.392Z,10.88
2023-04-16T10:16:16.706Z,10.87
2023-04-16T10:18:46.524Z,10.89
2023-04-16T10:21:15.329Z,10.84
2023-04-16T10:23:43.867Z,10.82
2023-04-16T10:26:11.165Z,10.74
2023-04-16T10:28:38.256Z,10.75
2023-04-16T10:31:08.935Z,10.77
2023-04-16T10:33:39.936Z,10.73
2023-04-16T10:36:12.794Z,10.88
2023-04-16T10:38:44.883Z,10.89
2023-04-16T10:41:11.971Z,10.95
2023-04-16T10:43:44.962Z,10.97
2023-04-16T10:46:37.830Z,10.90
2023-04-16T10:49:25.585Z,10.98
2023-04-16T10:52:03.197Z,10.98
2023-04-16T10:54:31.777Z,10.78
2023-04-16T10:57:04.424Z,11.05
2023-04-16T10:59:34.989Z,11.04
2023-04-16T11:02:28.495Z,11.20
2023-04-16T11:04:57.923Z,11.18
2023-04-16T11:07:34.681Z,11.20
2023-04-16T11:10:12.651Z,11.25
2023-04-16T11:12:46.429Z,11.18
2023-04-16T11:15:15.520Z,11.04
2023-04-16T11:17:50.602Z,11.16
2023-04-16T11:20:21.120Z,11.15
2023-04-16T11:22:50.059Z,11.13
2023-04-16T11:25:26.665Z,11.04
2023-04-16T11:27:54.010Z,11.19
2023-04-16T11:30:34.776Z,11.36
2023-04-16T11:33:11.267Z,11.22
2023-04-16T11:35:41.573Z,11.23
2023-04-16T11:38:08.821Z,11.30
2023-04-16T11:40:36.421Z,11.26
2023-04-16T11:43:16.231Z,11.44
2023-04-16T11:46:10.250Z,11.43
2023-04-16T11:48:55.521Z,11.47
2023-04-16T11:51:23.626Z,11.25
2023-04-16T11:53:55.314Z,11.37
2023-04-16T11:56:31.087Z,11.33
2023-04-16T11:59:14.404Z,11.31
2023-04-16T12:01:46.500Z,11.43
2023-04-16T12:04:16.441Z,11.37
2023-04-16T12:07:13.653Z,11.49
2023-04-16T12:09:42.955Z,11.64
2023-04-16T12:12:33.272Z,11.54
2023-04-16T12:15:05.127Z,11.56
2023-04-16T12:17:33.868Z,11.52
2023-04-16T12:20:12.712Z,11.59
2023-04-16T12:22:47.858Z,11.54
2023-04-16T12:25:17.337Z,11.62
2023-04-16T12:27:54.021Z,11.60
2023-04-16T12:30:24.607Z,11.46
2023-04-16T12:33:18.985Z,11.41
2023-04-16T12:35:46.413Z,11.52
2023-04-16T12:38:15.204Z,11.45
2023-04-16T12:40:42.617Z,11.66
2023-04-16T12:43:13.069Z,11.40
2023-04-16T12:45:40.977Z,11.37
2023-04-16T12:48:08.002Z,11.53
2023-04-16T12:50:35.072Z,11.63
2023-04-16T12:53:02.173Z,11.80
2023-04-16T12:55:29.279Z,11.77
2023-04-16T12:57:56.427Z,11.61
2023-04-16T13:00:23.630Z,11.85
2023-04-16T13:02:50.761Z,11.76
2023-04-16T13:05:19.385Z,11.81
2023-04-16T13:07:46.551Z,11.81
2023-04-16T13:10:13.872Z,11.86
2023-04-16T13:12:41.085Z,11.89
2023-04-16T13:15:09.352Z,11.87
2023-04-16T13:17:36.317Z,11.90
2023-04-16T13:20:03.483Z,11.98
2023-04-16T13:22:30.754Z,12.01
2023-04-16T13:24:57.754Z,12.11
2023-04-16T13:27:24.750Z,11.82
2023-04-16T13:29:51.848Z,11.84
2023-04-16T13:32:19.331Z,11.99
2023-04-16T13:34:46.581Z,12.06
2023-04-16T13:37:13.862Z,12.14
2023-04-16T13:39:41.013Z,11.93
2023-04-16T13:42:08.050Z,12.03
2023-04-16T13:44:35.092Z,12.03
2023-04-16T13:47:02.334Z,12.05
2023-04-16T13:49:32.202Z,11.96
2023-04-16T13:52:01.033Z,12.16
2023-04-16T13:54:28.056Z,12.18
2023-04-16T13:56:55.182Z,12.13
2023-04-16T13:59:22.228Z,12.06
2023-04-16T14:01:49.459Z,12.27
2023-04-16T14:04:16.593Z,12.20
2023-04-16T14:06:43.559Z,12.29
2023-04-16T14:09:11.188Z,12.15
2023-04-16T14:11:38.512Z,12.10
2023-04-16T14:14:05.724Z,12.28
2023-04-16T14:16:32.988Z,12.37
2023-04-16T14:19:00.003Z,12.40
2023-04-16T14:21:27.430Z,12.42
2023-04-16T14:23:54.415Z,12.27
2023-04-16T14:26:21.522Z,12.43
2023-04-16T14:28:48.585Z,12.47
2023-04-16T14:31:20.694Z,12.38
2023-04-16T14:33:47.746Z,12.49
2023-04-16T14:36:14.763Z,12.44
2023-04-16T14:38:43.269Z,12.41
2023-04-16T14:41:12.451Z,12.49
2023-04-16T14:43:42.603Z,12.56
2023-04-16T14:46:09.944Z,12.48
2023-04-16T14:48:39.741Z,12.32
2023-04-16T14:51:07.275Z,12.27
2023-04-16T14:53:36.197Z,12.59
2023-04-16T14:56:03.805Z,12.49
2023-04-16T14:58:31.437Z,12.62
2023-04-16T15:00:59.142Z,12.69
2023-04-16T15:03:26.735Z,12.72
2023-04-16T15:05:57.074Z,12.59
2023-04-16T15:08:24.647Z,12.63
2023-04-16T15:10:52.010Z,12.51
2023-04-16T15:13:19.485Z,12.49
2023-04-16T15:15:46.675Z,12.68
2023-04-16T15:18:13.779Z,12.55
2023-04-16T15:20:40.923Z,12.54
2023-04-16T15:23:08.068Z,12.55
2023-04-16T15:25:35.243Z,12.67
2023-04-16T15:28:02.733Z,12.68
2023-04-16T15:30:31.209Z,12.56
2023-04-16T15:32:58.277Z,12.51
2023-04-16T15:35:25.599Z,12.55
2023-04-16T15:37:52.849Z,12.46
2023-04-16T15:40:20.627Z,12.55
2023-04-16T15:42:47.777Z,12.68
2023-04-16T15:45:14.753Z,12.57
2023-04-16T15:47:42.396Z,12.63
2023-04-16T15:50:09.948Z,12.58
2023-04-16T15:52:38.760Z,12.59
2023-04-16T15:55:06.298Z,12.64
2023-04-16T15:57:33.349Z,12.72
2023-04-16T16:00:10.579Z,12.55
2023-04-16T16:02:42.730Z,12.66
2023-04-16T16:05:11.897Z,12.55
2023-04-16T16:07:39.341Z,12.55
2023-04-16T16:10:07.986Z,12.71
2023-04-16T16:12:35.708Z,12.72
2023-04-16T16:15:02.889Z,12.71
2023-04-16T16:17:30.039Z,12.78
2023-04-16T16:19:58.898Z,12.74
2023-04-16T16:22:26.295Z,12.74
2023-04-16T16:24:57.718Z,12.81
2023-04-16T16:27:24.736Z,12.78
2023-04-16T16:29:51.732Z,12.79
2023-04-16T16:32:18.768Z,12.60
2023-04-16T16:34:45.731Z,12.82
2023-04-16T16:37:12.761Z,12.79
2023-04-16T16:39:39.726Z,12.65
2023-04-16T16:42:09.108Z,12.73
2023-04-16T16:44:36.695Z,12.39
2023-04-16T16:47:04.007Z,12.64
2023-04-16T16:49:31.151Z,12.78
2023-04-16T16:51:58.133Z,12.58
2023-04-16T16:54:25.349Z,12.73
2023-04-16T16:56:53.232Z,12.71
2023-04-16T16:59:20.274Z,12.67
2023-04-16T17:01:47.282Z,12.72
2023-04-16T17:04:14.348Z,12.71
2023-04-16T17:06:41.805Z,12.65
2023-04-16T17:09:09.248Z,12.80
2023-04-16T17:11:36.812Z,12.76
2023-04-16T17:14:03.783Z,12.67
2023-04-16T17:16:30.886Z,12.82
2023-04-16T17:18:59.274Z,12.76
2023-04-16T17:21:26.276Z,12.80
2023-04-16T17:23:54.472Z,12.78
2023-04-16T17:26:22.457Z,12.82
2023-04-16T17:28:49.637Z,12.58
2023-04-16T17:31:16.899Z,12.67
2023-04-16T17:33:44.487Z,12.67
2023-04-16T17:36:11.462Z,12.61
2023-04-16T17:38:38.474Z,12.49
2023-04-16T17:41:05.550Z,12.50
2023-04-16T17:43:32.624Z,12.48
2023-04-16T17:45:59.634Z,12.44
2023-04-16T17:48:26.646Z,12.44
2023-04-16T17:50:53.836Z,12.41
2023-04-16T17:53:20.940Z,12.22
2023-04-16T17:55:54.109Z,12.36
2023-04-16T17:58:22.378Z,12.30
2023-04-16T18:00:49.410Z,12.28
2023-04-16T18:03:16.573Z,12.27
2023-04-16T18:05:43.751Z,12.28
2023-04-16T18:08:10.784Z,12.16
2023-04-16T18:10:39.248Z,12.13
2023-04-16T18:13:06.397Z,12.21
2023-04-16T18:15:39.283Z,11.97
2023-04-16T18:18:06.441Z,12.12
2023-04-16T18:20:33.732Z,12.13
2023-04-16T18:23:01.250Z,12.19
2023-04-16T18:25:34.314Z,12.00
2023-04-16T18:28:03.883Z,11.99
2023-04-16T18:30:31.040Z,12.03
2023-04-16T18:35:27.900Z,12.00
2023-04-16T18:37:54.963Z,11.98
2023-04-16T18:40:22.006Z,11.96
2023-04-16T18:42:49.051Z,11.97
2023-04-16T18:45:21.520Z,11.99
2023-04-16T18:47:50.307Z,11.77
2023-04-16T18:50:17.648Z,12.02
2023-04-16T18:52:44.670Z,11.94
2023-04-16T18:55:11.758Z,11.79
2023-04-16T18:57:38.886Z,11.62
2023-04-16T19:00:12.565Z,11.76
2023-04-16T19:02:40.657Z,11.82
2023-04-16T19:05:09.586Z,11.90
2023-04-16T19:07:37.579Z,11.90
2023-04-16T19:10:05.558Z,11.83
2023-04-16T19:12:33.114Z,11.82
2023-04-16T19:15:00.431Z,11.82
2023-04-16T19:17:27.430Z,11.82
2023-04-16T19:19:54.538Z,11.76
2023-04-16T19:22:21.757Z,11.60
2023-04-16T19:24:48.801Z,11.62
2023-04-16T19:27:16.160Z,11.72
2023-04-16T19:29:45.308Z,11.49
2023-04-16T19:32:14.082Z,11.66
2023-04-16T19:34:41.351Z,11.45
2023-04-16T19:37:08.344Z,11.57
2023-04-16T19:39:35.293Z,11.61
2023-04-16T19:42:02.373Z,11.56
2023-04-16T19:44:29.421Z,11.51
2023-04-16T19:46:56.852Z,11.50
2023-04-16T19:49:25.389Z,11.59
2023-04-16T19:51:53.093Z,11.49
2023-04-16T19:54:20.042Z,11.49
2023-04-16T19:56:49.373Z,11.45
2023-04-16T19:59:16.391Z,11.48
2023-04-16T20:01:43.480Z,11.53
2023-04-16T20:04:10.633Z,11.46
2023-04-16T20:06:37.624Z,11.45
2023-04-16T20:09:04.981Z,11.44
2023-04-16T20:11:31.980Z,11.47
2023-04-16T20:14:00.952Z,11.44
2023-04-16T20:16:28.047Z,11.46
2023-04-16T20:18:55.027Z,11.46
2023-04-16T20:21:23.032Z,11.34
2023-04-16T20:23:50.029Z,11.41
2023-04-16T20:26:18.329Z,11.28
2023-04-16T20:28:45.936Z,11.33
2023-04-16T20:31:13.227Z,11.35
2023-04-16T20:33:40.521Z,11.26
2023-04-16T20:36:08.145Z,11.33
2023-04-16T20:38:35.720Z,11.28
2023-04-16T20:41:14.598Z,11.28
2023-04-16T20:43:42.392Z,11.29
2023-04-16T20:46:11.137Z,11.24
2023-04-16T20:48:39.083Z,11.25
2023-04-16T20:51:09.389Z,11.19
2023-04-16T20:53:39.350Z,11.26
2023-04-16T20:56:06.965Z,11.20
2023-04-16T20:58:34.100Z,11.21
2023-04-16T21:01:01.800Z,11.25
2023-04-16T21:03:28.965Z,11.23
2023-04-16T21:05:56.192Z,11.23
2023-04-16T21:08:24.130Z,11.20
2023-04-16T21:10:51.291Z,11.22
2023-04-16T21:13:18.745Z,11.15
2023-04-16T21:15:46.252Z,11.18
2023-04-16T21:18:13.536Z,11.16
2023-04-16T21:20:40.527Z,11.16
2023-04-16T21:23:07.740Z,11.17
2023-04-16T21:25:34.772Z,11.09
2023-04-16T21:28:01.813Z,11.19
2023-04-16T21:30:28.895Z,11.26
2023-04-16T21:32:55.973Z,11.22
2023-04-16T21:35:22.961Z,11.24
2023-04-16T21:37:50.021Z,11.22
2023-04-16T21:40:17.051Z,11.19
2023-04-16T21:42:44.603Z,11.23
2023-04-16T21:45:12.026Z,11.22
2023-04-16T21:47:39.020Z,11.18
2023-04-16T21:50:06.848Z,11.19
2023-04-16T21:52:33.905Z,11.19
2023-04-16T21:55:01.098Z,10.98
2023-04-16T21:57:28.154Z,11.13
2023-04-16T21:59:55.158Z,11.10
2023-04-16T22:02:22.358Z,11.11
2023-04-16T22:04:49.394Z,10.91
2023-04-16T22:07:16.950Z,11.07
2023-04-16T22:09:44.145Z,10.96
2023-04-16T22:12:11.254Z,11.01
2023-04-16T22:14:43.977Z,11.05
2023-04-16T22:17:15.043Z,10.98
2023-04-16T22:19:42.425Z,10.99
2023-04-16T22:22:09.394Z,10.80
2023-04-16T22:24:36.377Z,10.92
2023-04-16T22:27:03.439Z,10.93
2023-04-16T22:29:30.400Z,10.79
2023-04-16T22:31:57.395Z,10.57
2023-04-16T22:34:24.378Z,10.88
2023-04-16T22:36:51.424Z,10.81
2023-04-16T22:39:18.820Z,10.80
2023-04-16T22:41:45.968Z,10.81
2023-04-16T22:44:12.917Z,10.84
2023-04-16T22:46:39.924Z,10.84
2023-04-16T22:49:06.878Z,10.90
2023-04-16T22:51:34.229Z,10.84
2023-04-16T22:54:01.458Z,10.84
2023-04-16T22:56:30.345Z,10.89
2023-04-16T22:58:57.716Z,10.88
2023-04-16T23:01:25.134Z,10.90
2023-04-16T23:03:52.943Z,10.84
2023-04-16T23:06:19.970Z,10.83
2023-04-16T23:08:46.917Z,10.83
2023-04-16T23:11:13.884Z,10.84
2023-04-16T23:13:42.703Z,10.80
2023-04-16T23:16:09.703Z,10.80
2023-04-16T23:18:36.949Z,10.80
2023-04-16T23:21:04.115Z,10.80
2023-04-16T23:23:31.237Z,10.79
2023-04-16T23:25:58.227Z,10.80
2023-04-16T23:28:25.188Z,10.69
2023-04-16T23:30:53.074Z,10.60
2023-04-16T23:33:20.208Z,10.74
2023-04-16T23:35:47.841Z,10.74
2023-04-16T23:38:14.861Z,10.68
2023-04-16T23:40:41.869Z,10.72
2023-04-16T23:43:08.946Z,10.67
2023-04-16T23:45:35.980Z,10.59
2023-04-16T23:48:03.093Z,10.71
2023-04-16T23:50:30.434Z,10.68
2023-04-16T23:52:57.388Z,10.72
2023-04-16T23:55:24.499Z,10.67
2023-04-16T23:57:51.442Z,10.65
